EW5809 Weather Reports


Display with metric or nautical units.
time (UTC)temp
F
wind
direction
speed
MPH
gust
MPH
rain 1hr
in
rain 24hr
in
rain mn
in
humidity
%
barometer
mb
20190424163046 72 84 1.0 5.0 0.00 0.00 0.00 31 1013.5
20190424161537 72 80 2.0 5.0 0.00 0.00 0.00 31 1013.6
20190424160033 70 63 0.0 3.0 0.00 0.00 0.00 33 1013.6
20190424154524 69 197 0.0 3.0 0.00 0.00 0.00 35 1013.5
20190424153016 68 134 0.0 3.0 0.00 0.00 0.00 36 1013.4
20190424151511 66 90 1.0 5.0 0.00 0.00 0.00 39 1013.4
20190424150014 65 78 2.0 6.0 0.00 0.00 0.00 39 1013.4
20190424144510 64 98 4.0 7.0 0.00 0.00 0.00 40 1013.4
20190424143214 64 104 3.0 6.0 0.00 0.00 0.00 41 1013.2
20190424141646 62 344 0.0 2.0 0.00 0.00 0.00 45 1013.1
20190424140127 61 95 0.0 1.0 0.00 0.00 0.00 46 1013.2
20190424134719 57 77 0.0 1.0 0.00 0.00 0.00 52 1012.9
20190424133141 54 263 0.0 1.0 0.00 0.00 0.00 58 1012.9
20190424131644 53 123 0.0 1.0 0.00 0.00 0.00 59 1012.7
20190424130218 53 281 0.0 0.0 0.00 0.00 0.00 57 1012.2
20190424124625 54 130 0.0 3.0 0.00 0.00 0.00 55 1012.0
20190424123128 53 171 0.0 0.0 0.00 0.00 0.00 56 1011.7
20190424121632 53 238 0.0 1.0 0.00 0.00 0.00 58 1011.5
20190424120101 53 238 0.0 0.0 0.00 0.00 0.00 57 1011.4
20190424114550 53 209 0.0 1.0 0.00 0.00 0.00 57 1011.4
20190424113055 54 245 0.0 0.0 0.00 0.00 0.00 56 1011.1
20190424111621 55 245 0.0 2.0 0.00 0.00 0.00 54 1011.2
20190424110050 56 36 0.0 1.0 0.00 0.00 0.00 51 1011.2
20190424104529 57 54 0.0 3.0 0.00 0.00 0.00 50 1011.2
20190424103114 57 77 0.0 1.0 0.00 0.00 0.00 51 1011.3
20190424101609 58 77 0.0 2.0 0.00 0.00 0.00 49 1011.3
20190424100115 57 131 0.0 0.0 0.00 0.00 0.00 52 1011.3
20190424094611 58 132 0.0 1.0 0.00 0.00 0.00 50 1011.3
20190424093104 57 219 0.0 1.0 0.00 0.00 0.00 51 1011.4
20190424091539 58 77 0.0 1.0 0.00 0.00 0.00 50 1011.3
20190424090056 57 308 0.0 2.0 0.00 0.00 0.00 49 1011.3
20190424084540 58 287 0.0 0.0 0.00 0.00 0.00 48 1011.3
20190424083026 58 287 0.0 1.0 0.00 0.00 0.00 47 1011.3
20190424081546 59 41 0.0 1.0 0.00 0.00 0.00 46 1011.4
20190424080032 61 41 0.0 1.0 0.00 0.00 0.00 43 1011.3
20190424074517 59 290 0.0 0.0 0.00 0.00 0.00 45 1011.4
20190424073018 59 290 0.0 0.0 0.00 0.00 0.00 46 1011.4
20190424071539 60 290 0.0 1.0 0.00 0.00 0.00 46 1011.4
20190424070008 59 351 0.0 1.0 0.00 0.00 0.00 46 1011.4
20190424064549 59 115 0.0 0.0 0.00 0.00 0.00 45 1011.4
20190424063029 60 116 0.0 0.0 0.00 0.00 0.00 44 1011.5
20190424061519 60 117 0.0 0.0 0.00 0.00 0.00 44 1011.4
20190424060004 61 214 0.0 1.0 0.00 0.00 0.00 43 1011.2
20190424054504 61 212 0.0 2.0 0.00 0.00 0.00 44 1011.3
20190424053217 62 247 0.0 0.0 0.00 0.00 0.00 43 1011.0
20190424053002 62 247 0.0 0.0 0.00 0.00 0.00 43 1011.0
20190424051645 62 247 0.0 1.0 0.00 0.00 0.00 43 1010.7
20190424050207 63 219 0.0 1.0 0.00 0.00 0.00 42 1010.7
20190424044631 64 76 0.0 0.0 0.00 0.00 0.00 42 1010.7
20190424043258 65 76 0.0 0.0 0.00 0.00 0.00 40 1010.6
20190424041638 66 76 0.0 1.0 0.00 0.00 0.00 38 1010.7
20190424040230 67 81 2.0 4.0 0.00 0.00 0.00 36 1010.5
20190424034708 68 72 2.0 5.0 0.00 0.00 0.00 33 1010.4
20190424033113 69 339 1.0 6.0 0.00 0.00 0.00 33 1010.1
20190424030201 69 315 4.0 15.0 0.00 0.00 0.00 33 1009.8
20190424024628 69 25 3.0 6.0 0.00 0.00 0.00 33 1009.8
20190424023135 69 314 1.0 10.0 0.00 0.00 0.00 32 1009.7
20190424021641 69 326 5.0 12.0 0.00 0.00 0.00 31 1009.7
20190424020130 69 294 3.0 12.0 0.00 0.00 0.00 32 1009.6
20190424014626 69 360 6.0 14.0 0.00 0.00 0.00 33 1009.5
20190424013143 69 319 5.0 22.0 0.00 0.00 0.00 33 1009.8
20190424011621 70 46 5.0 18.0 0.00 0.00 0.00 33 1009.7
20190424010159 71 341 6.0 13.0 0.00 0.00 0.00 32 1009.6
20190424004639 73 297 7.0 18.0 0.00 0.00 0.00 28 1009.6
20190424003056 73 4 1.0 5.0 0.00 0.00 0.00 26 1009.3
20190424001700 72 89 2.0 8.0 0.00 0.00 0.00 26 1009.1
20190424000135 72 57 2.0 5.0 0.00 0.00 0.00 27 1008.8
20190423234614 71 83 1.0 9.0 0.00 0.00 0.00 29 1008.9
20190423233055 71 90 2.0 6.0 0.00 0.00 0.00 30 1009.0
20190423231645 71 103 3.0 6.0 0.00 0.00 0.00 29 1009.3
20190423230201 71 79 5.0 12.0 0.00 0.00 0.00 30 1009.9
20190423224631 71 77 3.0 12.0 0.00 0.00 0.00 29 1009.8
20190423223144 72 53 8.0 15.0 0.00 0.00 0.00 28 1009.1
20190423221629 74 333 12.0 22.0 0.00 0.00 0.00 24 1008.7
20190423220137 77 304 5.0 17.0 0.00 0.00 0.00 21 1008.1
20190423214609 80 271 6.0 14.0 0.00 0.00 0.00 18 1008.0
20190423213120 80 314 6.0 12.0 0.00 0.00 0.00 17 1007.9
20190423211601 79 340 5.0 12.0 0.00 0.00 0.00 18 1007.8
20190423210106 77 285 1.0 8.0 0.00 0.00 0.00 14 1007.8
20190423204538 77 53 5.0 18.0 0.00 0.00 0.00 13 1008.3
20190423203058 80 120 3.0 7.0 0.00 0.00 0.00 15 1008.1
20190423201620 79 97 2.0 11.0 0.00 0.00 0.00 18 1008.3
20190423200051 78 77 4.0 13.0 0.00 0.00 0.00 17 1008.4
20190423194558 79 66 0.0 4.0 0.00 0.00 0.00 19 1008.4
20190423193045 78 250 0.0 7.0 0.00 0.00 0.00 20 1008.7
20190423191530 78 193 2.0 11.0 0.00 0.00 0.00 19 1008.8
20190423190108 78 130 1.0 8.0 0.00 0.00 0.00 19 1009.0
20190423184552 78 98 1.0 10.0 0.00 0.00 0.00 20 1009.3
20190423183103 78 203 3.0 7.0 0.00 0.00 0.00 19 1009.4
20190423181553 79 11 2.0 6.0 0.00 0.00 0.00 19 1009.6
20190423180019 77 46 2.0 8.0 0.00 0.00 0.00 20 1009.7
20190423174525 77 207 0.0 5.0 0.00 0.00 0.00 22 1009.8
20190423173029 77 145 2.0 6.0 0.00 0.00 0.00 22 1009.9
20190423171604 76 168 0.0 5.0 0.00 0.00 0.00 23 1009.9
20190423170011 74 91 0.0 7.0 0.00 0.00 0.00 26 1010.0
20190423164521 74 58 3.0 7.0 0.00 0.00 0.00 26 1010.0